createdAt,value
2023-11-06T00:00:24.461Z,97259.00
2023-11-06T00:02:56.579Z,97260.00
2023-11-06T00:05:28.136Z,97270.00
2023-11-06T00:07:59.560Z,97277.00
2023-11-06T00:10:30.575Z,97272.00
2023-11-06T00:13:01.534Z,97269.00
2023-11-06T00:15:32.639Z,97278.00
2023-11-06T00:18:03.694Z,97282.00
2023-11-06T00:20:34.678Z,97272.00
2023-11-06T00:23:05.665Z,97269.00
2023-11-06T00:25:37.543Z,97271.00
2023-11-06T00:28:08.548Z,97273.00
2023-11-06T00:30:39.517Z,97277.00
2023-11-06T00:33:10.469Z,97275.00
2023-11-06T00:35:41.420Z,97275.00
2023-11-06T00:38:12.718Z,97287.00
2023-11-06T00:40:43.906Z,97284.00
2023-11-06T00:43:14.929Z,97284.00
2023-11-06T00:45:46.413Z,97287.00
2023-11-06T00:48:17.402Z,97302.00
2023-11-06T00:50:48.388Z,97295.00
2023-11-06T00:53:19.350Z,97294.00
2023-11-06T00:55:52.130Z,97297.00
2023-11-06T00:58:23.269Z,97290.00
2023-11-06T01:00:54.236Z,97305.00
2023-11-06T01:03:25.253Z,97312.00
2023-11-06T01:05:56.235Z,97318.00
2023-11-06T01:08:27.345Z,97315.00
2023-11-06T01:10:58.775Z,97307.00
2023-11-06T01:13:30.334Z,97313.00
2023-11-06T01:16:01.303Z,97304.00
2023-11-06T01:18:32.523Z,97297.00
2023-11-06T01:21:03.817Z,97310.00
2023-11-06T01:23:35.753Z,97304.00
2023-11-06T01:26:06.889Z,97317.00
2023-11-06T01:28:37.926Z,97303.00
2023-11-06T01:31:08.933Z,97312.00
2023-11-06T01:33:40.009Z,97318.00
2023-11-06T01:36:12.189Z,97318.00
2023-11-06T01:38:43.146Z,97324.00
2023-11-06T01:41:14.730Z,97324.00
2023-11-06T01:43:45.751Z,97327.00
2023-11-06T01:46:16.940Z,97327.00
2023-11-06T01:48:48.735Z,97328.00
2023-11-06T01:51:19.829Z,97314.00
2023-11-06T01:53:50.897Z,97308.00
2023-11-06T01:56:22.179Z,97326.00
2023-11-06T01:58:54.520Z,97323.00
2023-11-06T02:01:27.864Z,97323.00
2023-11-06T02:04:00.153Z,97326.00
2023-11-06T02:06:32.615Z,97330.00
2023-11-06T02:09:04.795Z,97333.00
2023-11-06T02:11:35.817Z,97360.00
2023-11-06T02:14:06.896Z,97351.00
2023-11-06T02:16:37.899Z,97355.00
2023-11-06T02:19:09.188Z,97355.00
2023-11-06T02:21:46.546Z,97364.00
2023-11-06T02:24:24.932Z,97359.00
2023-11-06T02:26:59.310Z,97365.00
2023-11-06T02:29:30.405Z,97393.00
2023-11-06T02:32:01.383Z,97374.00
2023-11-06T02:34:32.400Z,97376.00
2023-11-06T02:37:03.377Z,97373.00
2023-11-06T02:39:35.394Z,97372.00
2023-11-06T02:42:07.004Z,97380.00
2023-11-06T02:44:37.997Z,97380.00
2023-11-06T02:47:10.392Z,97379.00
2023-11-06T02:49:41.416Z,97386.00
2023-11-06T02:52:13.513Z,97388.00
2023-11-06T02:54:45.550Z,97394.00
2023-11-06T02:57:16.505Z,97387.00
2023-11-06T02:59:47.483Z,97389.00
2023-11-06T03:02:18.506Z,97399.00
2023-11-06T03:04:49.607Z,97402.00
2023-11-06T03:07:20.625Z,97399.00
2023-11-06T03:09:51.645Z,97403.00
2023-11-06T03:12:22.678Z,97412.00
2023-11-06T03:14:53.558Z,97413.00
2023-11-06T03:17:24.870Z,97419.00
2023-11-06T03:19:55.883Z,97418.00
2023-11-06T03:22:26.904Z,97429.00
2023-11-06T03:24:57.839Z,97437.00
2023-11-06T03:27:28.769Z,97446.00
2023-11-06T03:29:59.704Z,97453.00
2023-11-06T03:32:31.099Z,97452.00
2023-11-06T03:35:02.184Z,97459.00
2023-11-06T03:37:33.614Z,97455.00
2023-11-06T03:40:05.168Z,97459.00
2023-11-06T03:42:36.134Z,97471.00
2023-11-06T03:45:07.578Z,97468.00
2023-11-06T03:47:38.782Z,97505.00
2023-11-06T03:50:10.282Z,97483.00
2023-11-06T03:52:41.261Z,97491.00
2023-11-06T03:55:14.234Z,97494.00
2023-11-06T03:57:45.403Z,97496.00
2023-11-06T04:00:17.089Z,97500.00
2023-11-06T04:02:48.099Z,97515.00
2023-11-06T04:05:19.298Z,97509.00
2023-11-06T04:07:50.465Z,97509.00
2023-11-06T04:10:21.426Z,97523.00
2023-11-06T04:12:55.128Z,97528.00
2023-11-06T04:15:26.328Z,97518.00
2023-11-06T04:17:57.383Z,97526.00
2023-11-06T04:20:28.450Z,97524.00
2023-11-06T04:22:59.564Z,97524.00
2023-11-06T04:25:30.571Z,97526.00
2023-11-06T04:28:01.516Z,97533.00
2023-11-06T04:30:33.657Z,97535.00
2023-11-06T04:33:04.737Z,97546.00
2023-11-06T04:35:35.739Z,97539.00
2023-11-06T04:38:07.019Z,97547.00
2023-11-06T04:40:38.058Z,97536.00
2023-11-06T04:43:09.093Z,97545.00
2023-11-06T04:45:40.328Z,97533.00
2023-11-06T04:48:11.441Z,97523.00
2023-11-06T04:50:42.525Z,97537.00
2023-11-06T04:53:13.546Z,97533.00
2023-11-06T04:55:44.603Z,97541.00
2023-11-06T04:58:15.738Z,97543.00
2023-11-06T05:00:47.476Z,97551.00
2023-11-06T05:03:18.617Z,97554.00
2023-11-06T05:05:49.718Z,97566.00
2023-11-06T05:08:20.760Z,97570.00
2023-11-06T05:10:51.934Z,97564.00
2023-11-06T05:13:24.039Z,97570.00
2023-11-06T05:15:55.068Z,97568.00
2023-11-06T05:18:26.079Z,97576.00
2023-11-06T05:20:57.057Z,97583.00
2023-11-06T05:23:28.101Z,97590.00
2023-11-06T05:25:59.184Z,97587.00
2023-11-06T05:28:30.303Z,97614.00
2023-11-06T05:31:01.332Z,97594.00
2023-11-06T05:33:32.315Z,97605.00
2023-11-06T05:36:04.032Z,97603.00
2023-11-06T05:38:35.228Z,97609.00
2023-11-06T05:41:06.323Z,97603.00
2023-11-06T05:43:38.126Z,97604.00
2023-11-06T05:46:09.103Z,97602.00
2023-11-06T05:48:40.104Z,97604.00
2023-11-06T05:51:11.171Z,97615.00
2023-11-06T05:53:42.095Z,97616.00
2023-11-06T05:56:13.085Z,97618.00
2023-11-06T05:58:44.053Z,97619.00
2023-11-06T06:01:15.009Z,97615.00
2023-11-06T06:03:48.567Z,97622.00
2023-11-06T06:06:19.517Z,97629.00
2023-11-06T06:08:50.455Z,97626.00
2023-11-06T06:11:21.538Z,97636.00
2023-11-06T06:13:52.552Z,97646.00
2023-11-06T06:16:23.470Z,97638.00
2023-11-06T06:18:54.546Z,97644.00
2023-11-06T06:21:25.560Z,97650.00
2023-11-06T06:23:56.605Z,97645.00
2023-11-06T06:26:28.209Z,97650.00
2023-11-06T06:28:59.586Z,97660.00
2023-11-06T06:31:30.722Z,97668.00
2023-11-06T06:34:02.228Z,97665.00
2023-11-06T06:36:33.234Z,97673.00
2023-11-06T06:39:07.077Z,97676.00
2023-11-06T06:41:38.446Z,97674.00
2023-11-06T06:44:09.461Z,97674.00
2023-11-06T06:46:40.478Z,97678.00
2023-11-06T06:49:12.660Z,97678.00
2023-11-06T06:51:43.605Z,97682.00
2023-11-06T06:54:14.649Z,97690.00
2023-11-06T06:56:47.964Z,97691.00
2023-11-06T06:59:18.967Z,97696.00
2023-11-06T07:01:50.113Z,97697.00
2023-11-06T07:04:21.241Z,97703.00
2023-11-06T07:06:53.050Z,97697.00
2023-11-06T07:09:26.794Z,97694.00
2023-11-06T07:11:57.705Z,97705.00
2023-11-06T07:14:32.559Z,97707.00
2023-11-06T07:17:06.021Z,97709.00
2023-11-06T07:19:37.443Z,97719.00
2023-11-06T07:22:08.443Z,97717.00
2023-11-06T07:24:40.051Z,97722.00
2023-11-06T07:27:11.058Z,97722.00
2023-11-06T07:29:42.091Z,97724.00
2023-11-06T07:32:13.091Z,97726.00
2023-11-06T07:34:44.024Z,97723.00
2023-11-06T07:37:15.014Z,97730.00
2023-11-06T07:39:46.013Z,97731.00
2023-11-06T07:42:17.120Z,97729.00
2023-11-06T07:44:48.071Z,97735.00
2023-11-06T07:47:19.060Z,97735.00
2023-11-06T07:49:49.974Z,97735.00
2023-11-06T07:52:20.960Z,97734.00
2023-11-06T07:54:52.221Z,97730.00
2023-11-06T07:57:23.208Z,97736.00
2023-11-06T07:59:54.307Z,97730.00
2023-11-06T08:02:25.300Z,97732.00
2023-11-06T08:04:57.387Z,97740.00
2023-11-06T08:07:28.560Z,97730.00
2023-11-06T08:09:59.539Z,97744.00
2023-11-06T08:12:30.929Z,97740.00
2023-11-06T08:15:02.151Z,97746.00
2023-11-06T08:17:33.221Z,97755.00
2023-11-06T08:20:05.070Z,97752.00
2023-11-06T08:22:36.458Z,97756.00
2023-11-06T08:25:10.718Z,97752.00
2023-11-06T08:27:41.883Z,97752.00
2023-11-06T08:30:13.662Z,97756.00
2023-11-06T08:32:45.003Z,97769.00
2023-11-06T08:35:16.225Z,97770.00
2023-11-06T08:37:47.435Z,97771.00
2023-11-06T08:40:18.734Z,97771.00
2023-11-06T08:42:49.782Z,97781.00
2023-11-06T08:45:20.725Z,97776.00
2023-11-06T08:47:52.511Z,97774.00
2023-11-06T08:50:23.577Z,97780.00
2023-11-06T08:52:54.571Z,97789.00
2023-11-06T08:55:25.981Z,97788.00
2023-11-06T08:57:57.102Z,97784.00
2023-11-06T09:00:28.887Z,97798.00
2023-11-06T09:03:01.238Z,97793.00
2023-11-06T09:05:32.556Z,97821.00
2023-11-06T09:08:04.177Z,97795.00
2023-11-06T09:10:35.936Z,97799.00
2023-11-06T09:13:06.962Z,97800.00
2023-11-06T09:15:40.292Z,97801.00
2023-11-06T09:18:11.523Z,97806.00
2023-11-06T09:20:43.413Z,97808.00
2023-11-06T09:23:14.734Z,97812.00
2023-11-06T09:25:45.879Z,97806.00
2023-11-06T09:28:17.075Z,97817.00
2023-11-06T09:30:48.212Z,97811.00
2023-11-06T09:33:20.175Z,97817.00
2023-11-06T09:35:51.171Z,97816.00
2023-11-06T09:38:22.233Z,97817.00
2023-11-06T09:40:53.643Z,97819.00
2023-11-06T09:43:25.243Z,97839.00
2023-11-06T09:45:58.036Z,97830.00
2023-11-06T09:48:32.659Z,97827.00
2023-11-06T09:51:11.830Z,97820.00
2023-11-06T09:53:46.914Z,97822.00
2023-11-06T09:56:20.833Z,97821.00
2023-11-06T09:58:53.103Z,97823.00
2023-11-06T10:01:29.578Z,97819.00
2023-11-06T10:04:01.529Z,97819.00
2023-11-06T10:06:34.970Z,97821.00
2023-11-06T10:09:26.194Z,97830.00
2023-11-06T10:12:17.650Z,97867.00
2023-11-06T10:14:48.755Z,97832.00
2023-11-06T10:17:24.365Z,97831.00
2023-11-06T10:20:15.749Z,97832.00
2023-11-06T10:22:57.682Z,97825.00
2023-11-06T10:25:29.857Z,97827.00
2023-11-06T10:28:00.894Z,97818.00
2023-11-06T10:30:32.459Z,97822.00
2023-11-06T10:33:15.070Z,97816.00
2023-11-06T10:35:46.745Z,97812.00
2023-11-06T10:38:34.922Z,97821.00
2023-11-06T10:41:26.282Z,97814.00
2023-11-06T10:44:03.036Z,97813.00
2023-11-06T10:46:36.627Z,97817.00
2023-11-06T10:49:35.644Z,97822.00
2023-11-06T10:52:08.266Z,97811.00
2023-11-06T10:54:41.674Z,97811.00
2023-11-06T10:57:17.593Z,97795.00
2023-11-06T10:59:49.131Z,97799.00
2023-11-06T11:02:45.896Z,97798.00
2023-11-06T11:05:19.648Z,97818.00
2023-11-06T11:07:52.278Z,97814.00
2023-11-06T11:10:30.790Z,97805.00
2023-11-06T11:13:04.325Z,97801.00
2023-11-06T11:15:35.952Z,97819.00
2023-11-06T11:18:12.176Z,97816.00
2023-11-06T11:20:58.867Z,97806.00
2023-11-06T11:23:48.243Z,97810.00
2023-11-06T11:26:19.425Z,97812.00
2023-11-06T11:28:56.732Z,97810.00
2023-11-06T11:32:09.707Z,97805.00
2023-11-06T11:34:40.737Z,97819.00
2023-11-06T11:37:30.945Z,97811.00
2023-11-06T11:40:05.173Z,97808.00
2023-11-06T11:42:36.171Z,97813.00
2023-11-06T11:45:11.474Z,97807.00
2023-11-06T11:47:48.577Z,97803.00
2023-11-06T11:50:28.870Z,97825.00
2023-11-06T11:53:00.106Z,97812.00
2023-11-06T11:55:39.140Z,97812.00
2023-11-06T11:58:16.251Z,97808.00
2023-11-06T12:00:47.749Z,97799.00
2023-11-06T12:03:18.968Z,97799.00
2023-11-06T12:06:00.454Z,97794.00
2023-11-06T12:08:32.254Z,97797.00
2023-11-06T12:11:11.841Z,97785.00
2023-11-06T12:13:42.920Z,97800.00
2023-11-06T12:16:13.895Z,97796.00
2023-11-06T12:18:45.260Z,97798.00
2023-11-06T12:21:16.716Z,97811.00
2023-11-06T12:23:47.983Z,97801.00
2023-11-06T12:26:20.492Z,97798.00
2023-11-06T12:28:53.379Z,97798.00
2023-11-06T12:31:26.395Z,97791.00
2023-11-06T12:33:57.441Z,97808.00
2023-11-06T12:36:31.925Z,97803.00
2023-11-06T12:39:03.813Z,97804.00
2023-11-06T12:41:40.252Z,97797.00
2023-11-06T12:44:18.869Z,97798.00
2023-11-06T12:47:01.483Z,97795.00
2023-11-06T12:49:53.479Z,97793.00
2023-11-06T12:52:28.009Z,97798.00
2023-11-06T12:55:00.823Z,97795.00
2023-11-06T12:57:33.233Z,97796.00
2023-11-06T13:00:06.917Z,97796.00
2023-11-06T13:02:38.799Z,97805.00
2023-11-06T13:05:11.322Z,97805.00
2023-11-06T13:07:45.560Z,97812.00
2023-11-06T13:10:17.347Z,97807.00
2023-11-06T13:12:49.201Z,97810.00
2023-11-06T13:15:20.527Z,97810.00
2023-11-06T13:17:54.219Z,97811.00
2023-11-06T13:20:31.019Z,97812.00
2023-11-06T13:23:02.501Z,97813.00
2023-11-06T13:25:34.671Z,97804.00
2023-11-06T13:28:06.718Z,97814.00
2023-11-06T13:30:39.534Z,97804.00
2023-11-06T13:33:10.886Z,97814.00
2023-11-06T13:35:42.371Z,97813.00
2023-11-06T13:38:13.426Z,97793.00
2023-11-06T13:40:46.240Z,97801.00
2023-11-06T13:43:20.068Z,97801.00
2023-11-06T13:45:51.057Z,97811.00
2023-11-06T13:48:22.150Z,97804.00
2023-11-06T13:51:00.856Z,97819.00
2023-11-06T13:53:34.132Z,97827.00
2023-11-06T13:56:21.254Z,97827.00
2023-11-06T13:58:53.743Z,97822.00
2023-11-06T14:01:37.239Z,97820.00
2023-11-06T14:04:08.863Z,97818.00
2023-11-06T14:06:39.973Z,97808.00
2023-11-06T14:09:29.277Z,97816.00
2023-11-06T14:12:01.381Z,97817.00
2023-11-06T14:14:32.588Z,97810.00
2023-11-06T14:17:06.128Z,97814.00
2023-11-06T14:19:39.478Z,97815.00
2023-11-06T14:22:10.846Z,97806.00
2023-11-06T14:24:42.123Z,97809.00
2023-11-06T14:27:14.521Z,97810.00
2023-11-06T14:29:45.615Z,97808.00
2023-11-06T14:32:16.632Z,97817.00
2023-11-06T14:34:48.813Z,97806.00
2023-11-06T14:37:19.743Z,97808.00
2023-11-06T14:39:50.714Z,97806.00
2023-11-06T14:42:21.687Z,97815.00
2023-11-06T14:44:52.707Z,97806.00
2023-11-06T14:47:25.160Z,97815.00
2023-11-06T14:49:56.327Z,97808.00
2023-11-06T14:52:27.274Z,97816.00
2023-11-06T14:54:58.233Z,97824.00
2023-11-06T14:57:29.324Z,97837.00
2023-11-06T15:00:02.104Z,97816.00
2023-11-06T15:02:33.192Z,97815.00
2023-11-06T15:05:06.317Z,97822.00
2023-11-06T15:07:43.090Z,97826.00
2023-11-06T15:10:15.920Z,97830.00
2023-11-06T15:12:50.909Z,97833.00
2023-11-06T15:15:22.873Z,97839.00
2023-11-06T15:18:02.257Z,97830.00
2023-11-06T15:20:33.413Z,97834.00
2023-11-06T15:23:04.362Z,97842.00
2023-11-06T15:25:35.739Z,97843.00
2023-11-06T15:28:09.759Z,97834.00
2023-11-06T15:30:42.676Z,97841.00
2023-11-06T15:33:13.962Z,97826.00
2023-11-06T15:35:45.031Z,97831.00
2023-11-06T15:38:15.996Z,97832.00
2023-11-06T15:40:47.624Z,97828.00
2023-11-06T15:43:18.737Z,97832.00
2023-11-06T15:45:50.347Z,97834.00
2023-11-06T15:48:21.319Z,97832.00
2023-11-06T15:50:53.673Z,97853.00
2023-11-06T15:53:24.624Z,97843.00
2023-11-06T15:55:55.659Z,97844.00
2023-11-06T15:58:28.174Z,97846.00
2023-11-06T16:00:59.962Z,97858.00
2023-11-06T16:03:31.004Z,97852.00
2023-11-06T16:06:03.311Z,97872.00
2023-11-06T16:08:34.631Z,97862.00
2023-11-06T16:11:16.132Z,97866.00
2023-11-06T16:13:49.992Z,97856.00
2023-11-06T16:16:21.098Z,97856.00
2023-11-06T16:18:52.561Z,97856.00
2023-11-06T16:21:23.572Z,97866.00
2023-11-06T16:23:54.601Z,97868.00
2023-11-06T16:26:25.847Z,97879.00
2023-11-06T16:28:56.825Z,97879.00
2023-11-06T16:31:47.329Z,97885.00
2023-11-06T16:34:27.184Z,97882.00
2023-11-06T16:37:06.910Z,97911.00
2023-11-06T16:39:37.925Z,97917.00
2023-11-06T16:42:08.975Z,97927.00
2023-11-06T16:44:43.488Z,97940.00
2023-11-06T16:47:15.377Z,97949.00
2023-11-06T16:49:46.523Z,97961.00
2023-11-06T16:52:17.518Z,97961.00
2023-11-06T16:54:49.424Z,97957.00
2023-11-06T16:57:20.374Z,97962.00
2023-11-06T16:59:51.390Z,97948.00
2023-11-06T17:02:22.713Z,97956.00
2023-11-06T17:04:56.987Z,97951.00
2023-11-06T17:07:28.951Z,97957.00
2023-11-06T17:10:00.056Z,97978.00
2023-11-06T17:12:31.014Z,97970.00
2023-11-06T17:15:02.079Z,97976.00
2023-11-06T17:17:33.357Z,97980.00
2023-11-06T17:20:12.526Z,97987.00
2023-11-06T17:22:43.788Z,97993.00
2023-11-06T17:25:14.725Z,98004.00
2023-11-06T17:27:45.723Z,98009.00
2023-11-06T17:30:16.809Z,98036.00
2023-11-06T17:32:47.782Z,98034.00
2023-11-06T17:35:19.257Z,98036.00
2023-11-06T17:37:50.249Z,98021.00
2023-11-06T17:40:21.463Z,98050.00
2023-11-06T17:42:52.460Z,98075.00
2023-11-06T17:45:23.633Z,98073.00
2023-11-06T17:47:55.886Z,98071.00
2023-11-06T17:50:27.937Z,98078.00
2023-11-06T17:53:00.829Z,98083.00
2023-11-06T17:55:33.566Z,98097.00
2023-11-06T17:58:05.072Z,98097.00
2023-11-06T18:00:36.017Z,98107.00
2023-11-06T18:03:10.827Z,98094.00
2023-11-06T18:05:42.622Z,98095.00
2023-11-06T18:08:13.808Z,98105.00
2023-11-06T18:10:44.742Z,98108.00
2023-11-06T18:13:16.238Z,98110.00
2023-11-06T18:15:47.354Z,98111.00
2023-11-06T18:18:18.466Z,98121.00
2023-11-06T18:20:50.103Z,98118.00
2023-11-06T18:23:21.314Z,98120.00
2023-11-06T18:25:53.965Z,98118.00
2023-11-06T18:28:27.381Z,98112.00
2023-11-06T18:30:58.381Z,98121.00
2023-11-06T18:33:29.613Z,98119.00
2023-11-06T18:36:00.668Z,98120.00
2023-11-06T18:38:31.780Z,98115.00
2023-11-06T18:41:02.733Z,98129.00
2023-11-06T18:43:34.443Z,98129.00
2023-11-06T18:46:06.837Z,98135.00
2023-11-06T18:48:37.971Z,98131.00
2023-11-06T18:51:09.028Z,98136.00
2023-11-06T18:53:40.502Z,98151.00
2023-11-06T18:56:11.589Z,98138.00
2023-11-06T18:58:42.584Z,98144.00
2023-11-06T19:01:13.631Z,98140.00
2023-11-06T19:03:45.564Z,98149.00
2023-11-06T19:06:23.412Z,98140.00
2023-11-06T19:08:59.867Z,98154.00
2023-11-06T19:11:31.050Z,98155.00
2023-11-06T19:14:02.374Z,98168.00
2023-11-06T19:16:33.649Z,98171.00
2023-11-06T20:47:00.346Z,98219.00
2023-11-06T20:49:31.409Z,98222.00
2023-11-06T20:52:03.066Z,98216.00
2023-11-06T20:54:34.025Z,98217.00
2023-11-06T20:57:05.255Z,98224.00
2023-11-06T20:59:36.256Z,98230.00
2023-11-06T21:02:08.171Z,98227.00
2023-11-06T21:04:40.819Z,98225.00
2023-11-06T21:07:13.874Z,98236.00
2023-11-06T21:09:44.893Z,98239.00
2023-11-06T21:12:16.079Z,98242.00
2023-11-06T21:14:47.398Z,98238.00
2023-11-06T21:17:18.478Z,98242.00
2023-11-06T21:19:49.450Z,98252.00
2023-11-06T21:22:20.573Z,98254.00
2023-11-06T21:24:52.784Z,98250.00
2023-11-06T21:27:24.360Z,98269.00
2023-11-06T21:29:55.389Z,98284.00
2023-11-06T21:32:26.617Z,98261.00
2023-11-06T21:34:57.704Z,98247.00
2023-11-06T21:37:28.602Z,98257.00
2023-11-06T21:40:02.408Z,98263.00
2023-11-06T21:42:33.489Z,98262.00
2023-11-06T21:45:04.808Z,98260.00
2023-11-06T21:47:37.314Z,98262.00
2023-11-06T21:50:08.851Z,98258.00
2023-11-06T21:52:41.081Z,98259.00
2023-11-06T21:55:13.664Z,98257.00
2023-11-06T21:57:45.139Z,98259.00
2023-11-06T22:00:17.386Z,98261.00
2023-11-06T22:02:48.406Z,98270.00
2023-11-06T22:05:21.999Z,98273.00
2023-11-06T22:07:53.382Z,98274.00
2023-11-06T22:10:25.811Z,98270.00
2023-11-06T22:12:57.186Z,98278.00
2023-11-06T22:15:28.117Z,98280.00
2023-11-06T22:18:02.465Z,98279.00
2023-11-06T22:20:34.616Z,98282.00
2023-11-06T22:23:05.646Z,98274.00
2023-11-06T22:25:36.774Z,98279.00
2023-11-06T22:28:07.714Z,98288.00
2023-11-06T22:30:38.718Z,98279.00
2023-11-06T22:33:09.927Z,98289.00
2023-11-06T22:35:41.119Z,98289.00
2023-11-06T22:38:12.287Z,98291.00
2023-11-06T22:40:43.359Z,98286.00
2023-11-06T22:43:14.498Z,98286.00
2023-11-06T22:45:45.491Z,98290.00
2023-11-06T22:48:16.740Z,98289.00
2023-11-06T22:50:48.307Z,98323.00
2023-11-06T22:53:21.025Z,98294.00
2023-11-06T22:55:52.081Z,98293.00
2023-11-06T22:58:23.027Z,98303.00
2023-11-06T23:00:57.248Z,98291.00
2023-11-06T23:03:28.359Z,98298.00
2023-11-06T23:05:59.809Z,98292.00
2023-11-06T23:08:31.669Z,98291.00
2023-11-06T23:11:04.170Z,98302.00
2023-11-06T23:13:35.220Z,98313.00
2023-11-06T23:16:09.118Z,98306.00
2023-11-06T23:18:40.249Z,98337.00
2023-11-06T23:21:11.385Z,98316.00
2023-11-06T23:23:43.472Z,98307.00
2023-11-06T23:26:16.796Z,98313.00
2023-11-06T23:28:47.915Z,98333.00
2023-11-06T23:31:19.198Z,98316.00
2023-11-06T23:33:50.927Z,98313.00
2023-11-06T23:36:21.921Z,98319.00
2023-11-06T23:38:52.932Z,98321.00
2023-11-06T23:41:36.246Z,98315.00
2023-11-06T23:44:13.731Z,98315.00
2023-11-06T23:46:44.689Z,98323.00
2023-11-06T23:49:15.672Z,98330.00
2023-11-06T23:51:46.995Z,98335.00
2023-11-06T23:54:17.951Z,98344.00
2023-11-06T23:56:49.070Z,98324.00
2023-11-06T23:59:21.964Z,98335.00
